To NAV CANADA Home Page Login to a new session Search on AWWS site Feedback and Comments Disclaimer Vers la page française équivalente Tips FAQ What's new on the site To the Forecasts and Observations / NOTAM section To "File a Flight Plan" website Publications and other links Update of the User's profile FIC Telephone Numbers My Weather Data Folder Route Weather Data Regional Weather Data Local Weather Data To the Forecasts and Observations / NOTAM section
Request Generated 09/30/2016 at 21:56:51 UTC . Weather information available at that time is displayed.

METAR/TAF

LA RONGE (BARBER FIELD)/SK    

METAR CYVC 302100Z 03010KT 15SM OVC007 12/10 A3006 RMK SC8 SLP193=
METAR CYVC 302000Z 01008KT 15SM OVC008 12/10 A3008 RMK SC8 SLP201=
SPECI CYVC 301944Z 04007KT 15SM OVC007 12/10 A3009 RMK SC8 SLP202=
METAR CYVC 301900Z 07009KT 15SM -RA OVC006 11/10 A3009 RMK SC8
SLP202=

TAF CYVC 301838Z 3019/0107 06010G20KT 5SM -SHRA BR BKN006 OVC060
TEMPO 3019/0102 P6SM NSW SCT006 OVC060
FM010200 06006KT 3SM BR SCT008 BKN015
RMK NXT FCST BY 010100Z=
Your time UTC time
Weather data provided by Environment Canada and NAV CANADA